createdAt,value
2023-02-13T00:00:24.056Z,11.93
2023-02-13T00:02:51.479Z,11.70
2023-02-13T00:05:20.034Z,12.00
2023-02-13T00:07:46.931Z,12.40
2023-02-13T00:10:13.926Z,12.47
2023-02-13T00:12:41.201Z,12.23
2023-02-13T00:15:09.255Z,12.53
2023-02-13T00:17:36.585Z,11.83
2023-02-13T00:20:04.163Z,12.77
2023-02-13T00:22:35.435Z,12.03
2023-02-13T00:25:02.733Z,11.87
2023-02-13T00:27:29.629Z,12.37
2023-02-13T00:29:56.536Z,12.37
2023-02-13T00:32:23.790Z,12.53
2023-02-13T00:34:50.694Z,13.20
2023-02-13T00:37:17.684Z,12.53
2023-02-13T00:39:45.925Z,12.47
2023-02-13T00:42:12.760Z,12.87
2023-02-13T00:44:39.694Z,12.27
2023-02-13T00:47:06.572Z,14.70
2023-02-13T00:49:33.464Z,15.13
2023-02-13T00:52:01.796Z,14.73
2023-02-13T00:54:28.639Z,13.77
2023-02-13T00:56:56.828Z,13.80
2023-02-13T00:59:23.722Z,12.33
2023-02-13T01:01:50.666Z,13.37
2023-02-13T01:04:17.728Z,13.43
2023-02-13T01:06:44.696Z,15.30
2023-02-13T01:09:11.938Z,13.60
2023-02-13T01:11:38.821Z,13.83
2023-02-13T01:14:07.077Z,13.63
2023-02-13T01:16:34.134Z,14.93
2023-02-13T01:19:01.037Z,14.77
2023-02-13T01:21:31.516Z,14.17
2023-02-13T01:23:58.351Z,14.30
2023-02-13T01:26:25.464Z,14.90
2023-02-13T01:28:54.519Z,13.73
2023-02-13T01:31:22.817Z,15.27
2023-02-13T01:33:50.835Z,15.07
2023-02-13T01:36:21.485Z,14.33
2023-02-13T01:38:48.744Z,15.00
2023-02-13T01:41:15.837Z,14.20
2023-02-13T01:43:48.697Z,14.00
2023-02-13T01:46:18.820Z,14.67
2023-02-13T01:48:48.228Z,13.83
2023-02-13T01:51:20.075Z,14.23
2023-02-13T01:53:50.236Z,14.23
2023-02-13T01:56:23.943Z,14.33
2023-02-13T01:58:57.554Z,14.17
2023-02-13T02:01:25.822Z,15.03
2023-02-13T02:03:59.685Z,13.87
2023-02-13T02:06:33.429Z,14.73
2023-02-13T02:09:06.237Z,14.77
2023-02-13T02:11:39.580Z,13.97
2023-02-13T02:14:06.618Z,13.60
2023-02-13T02:16:34.476Z,14.27
2023-02-13T02:19:11.973Z,13.87
2023-02-13T02:21:51.737Z,13.70
2023-02-13T02:25:03.200Z,14.20
2023-02-13T02:27:58.631Z,13.67
2023-02-13T02:31:01.401Z,13.70
2023-02-13T02:33:36.126Z,13.53
2023-02-13T02:36:21.145Z,14.07
2023-02-13T02:39:01.236Z,14.30
2023-02-13T02:41:41.724Z,13.33
2023-02-13T02:44:25.286Z,13.03
2023-02-13T02:47:20.189Z,11.87
2023-02-13T02:50:00.213Z,12.70
2023-02-13T02:52:35.619Z,13.13
2023-02-13T02:55:08.972Z,13.13
2023-02-13T02:58:11.425Z,13.70
2023-02-13T03:01:00.857Z,14.07
2023-02-13T03:03:48.504Z,14.17
2023-02-13T03:06:23.128Z,13.47
2023-02-13T03:09:13.947Z,14.10
2023-02-13T03:12:03.214Z,12.60
2023-02-13T03:14:30.307Z,13.83
2023-02-13T03:17:16.834Z,14.47
2023-02-13T03:20:12.530Z,14.50
2023-02-13T03:22:51.682Z,13.17
2023-02-13T03:25:30.257Z,13.10
2023-02-13T03:28:20.355Z,14.43
2023-02-13T03:31:00.076Z,14.27
2023-02-13T03:33:56.521Z,14.37
2023-02-13T03:36:52.758Z,13.43
2023-02-13T03:39:23.974Z,13.37
2023-02-13T03:41:57.203Z,13.77
2023-02-13T03:44:28.851Z,12.90
2023-02-13T03:46:59.056Z,13.67
2023-02-13T03:49:48.961Z,13.47
2023-02-13T03:52:22.484Z,13.93
2023-02-13T03:55:14.021Z,13.57
2023-02-13T03:58:01.820Z,14.30
2023-02-13T04:00:35.793Z,15.17
2023-02-13T04:03:10.960Z,16.00
2023-02-13T04:05:43.057Z,14.17
2023-02-13T04:08:10.107Z,14.30
2023-02-13T04:10:47.003Z,14.03
2023-02-13T04:13:18.953Z,14.00
2023-02-13T04:15:50.067Z,13.50
2023-02-13T04:18:20.646Z,13.97
2023-02-13T04:20:47.690Z,14.03
2023-02-13T04:23:15.635Z,14.57
2023-02-13T04:25:46.919Z,13.57
2023-02-13T04:28:13.921Z,13.67
2023-02-13T04:30:40.970Z,13.97
2023-02-13T04:33:07.941Z,13.80
2023-02-13T04:35:35.430Z,13.43
2023-02-13T04:38:03.015Z,13.20
2023-02-13T04:40:29.885Z,14.13
2023-02-13T04:42:58.438Z,13.63
2023-02-13T04:45:25.327Z,14.63
2023-02-13T04:47:53.595Z,15.17
2023-02-13T04:50:20.691Z,14.07
2023-02-13T04:52:47.608Z,14.40
2023-02-13T04:55:14.711Z,13.97
2023-02-13T04:57:41.577Z,14.10
2023-02-13T05:00:11.225Z,14.07
2023-02-13T05:02:39.580Z,14.40
2023-02-13T05:05:06.814Z,13.90
2023-02-13T05:07:33.776Z,14.17
2023-02-13T05:10:00.703Z,13.77
2023-02-13T05:12:27.646Z,12.97
2023-02-13T05:14:54.572Z,13.47
2023-02-13T05:17:22.787Z,13.07
2023-02-13T05:19:49.641Z,12.73
2023-02-13T05:22:34.990Z,12.90
2023-02-13T05:25:01.905Z,13.43
2023-02-13T05:27:28.930Z,13.10
2023-02-13T05:29:55.760Z,14.13
2023-02-13T05:32:23.929Z,13.20
2023-02-13T05:34:50.764Z,14.70
2023-02-13T05:37:17.678Z,15.37
2023-02-13T05:39:44.574Z,14.40
2023-02-13T05:42:11.545Z,15.53
2023-02-13T05:44:38.536Z,13.77
2023-02-13T05:47:06.364Z,15.07
2023-02-13T05:49:34.633Z,13.80
2023-02-13T05:52:01.526Z,14.03
2023-02-13T05:54:28.485Z,13.47
2023-02-13T05:56:55.317Z,14.47
2023-02-13T05:59:23.937Z,13.30
2023-02-13T06:01:50.957Z,13.10
2023-02-13T06:04:17.893Z,12.57
2023-02-13T06:06:46.218Z,13.87
2023-02-13T06:09:13.080Z,13.63
2023-02-13T06:11:40.033Z,13.30
2023-02-13T06:14:06.976Z,13.17
2023-02-13T06:16:34.629Z,12.53
2023-02-13T06:19:01.457Z,13.87
2023-02-13T06:21:28.280Z,14.17
2023-02-13T06:23:56.538Z,13.93
2023-02-13T06:26:24.198Z,14.43
2023-02-13T06:28:51.191Z,13.90
2023-02-13T06:31:18.158Z,13.43
2023-02-13T06:33:45.191Z,12.67
2023-02-13T06:36:12.172Z,12.90
2023-02-13T06:38:39.106Z,12.87
2023-02-13T06:41:07.307Z,12.77
2023-02-13T06:43:34.222Z,13.37
2023-02-13T06:46:05.041Z,13.83
2023-02-13T06:48:32.012Z,13.77
2023-02-13T06:50:59.272Z,12.87
2023-02-13T06:53:26.386Z,14.63
2023-02-13T06:55:53.747Z,13.77
2023-02-13T06:58:23.280Z,13.93
2023-02-13T07:00:51.240Z,13.97
2023-02-13T07:03:18.276Z,14.57
2023-02-13T07:05:45.533Z,14.27
2023-02-13T07:08:13.113Z,13.90
2023-02-13T07:10:40.954Z,14.77
2023-02-13T07:13:08.720Z,14.47
2023-02-13T07:15:37.793Z,14.40
2023-02-13T07:18:05.915Z,15.57
2023-02-13T07:20:32.931Z,15.47
2023-02-13T07:23:00.413Z,17.00
2023-02-13T07:25:27.756Z,15.67
2023-02-13T07:27:54.630Z,14.97
2023-02-13T07:30:21.928Z,14.77
2023-02-13T07:32:51.242Z,14.67
2023-02-13T07:35:18.048Z,14.57
2023-02-13T07:37:44.866Z,14.17
2023-02-13T07:40:12.211Z,14.27
2023-02-13T07:42:39.027Z,14.00
2023-02-13T07:45:07.602Z,13.77
2023-02-13T07:47:35.030Z,13.80
2023-02-13T07:50:05.870Z,13.17
2023-02-13T07:52:33.373Z,12.20
2023-02-13T07:55:00.349Z,12.20
2023-02-13T07:57:27.164Z,12.13
2023-02-13T07:59:53.986Z,11.43
2023-02-13T08:02:20.798Z,11.20
2023-02-13T08:04:47.686Z,11.60
2023-02-13T08:07:17.407Z,10.57
2023-02-13T08:10:03.690Z,10.10
2023-02-13T08:13:01.257Z,10.67
2023-02-13T08:15:28.192Z,9.73
2023-02-13T08:17:55.025Z,9.23
2023-02-13T08:20:21.951Z,9.50
2023-02-13T08:22:50.440Z,9.63
2023-02-13T08:25:17.515Z,9.87
2023-02-13T08:27:44.492Z,9.63
2023-02-13T08:30:12.937Z,9.33
2023-02-13T08:32:53.371Z,8.97
2023-02-13T08:35:22.704Z,9.27
2023-02-13T08:37:51.057Z,9.40
2023-02-13T08:40:18.289Z,8.50
2023-02-13T08:42:45.285Z,8.37
2023-02-13T08:45:12.111Z,8.60
2023-02-13T08:47:39.887Z,8.23
2023-02-13T08:50:07.860Z,8.53
2023-02-13T08:52:35.022Z,8.63
2023-02-13T08:55:03.865Z,8.87
2023-02-13T08:57:31.342Z,8.57
2023-02-13T08:59:58.325Z,8.93
2023-02-13T09:02:25.291Z,8.57
2023-02-13T09:04:52.397Z,8.60
2023-02-13T09:07:19.223Z,8.80
2023-02-13T09:09:46.082Z,7.63
2023-02-13T09:12:14.341Z,8.37
2023-02-13T09:14:41.252Z,8.60
2023-02-13T09:17:08.217Z,8.03
2023-02-13T09:19:35.091Z,7.93
2023-02-13T09:22:02.132Z,7.83
2023-02-13T09:24:29.083Z,8.07
2023-02-13T09:26:56.671Z,8.07
2023-02-13T09:29:25.356Z,8.37
2023-02-13T09:31:52.716Z,8.60
2023-02-13T09:34:19.688Z,8.03
2023-02-13T09:36:46.547Z,7.77
2023-02-13T09:39:13.399Z,8.57
2023-02-13T09:41:42.706Z,8.13
2023-02-13T09:44:33.769Z,7.87
2023-02-13T09:47:06.685Z,8.47
2023-02-13T09:49:38.656Z,8.83
2023-02-13T09:52:05.682Z,8.43
2023-02-13T09:54:32.683Z,7.60
2023-02-13T09:57:02.487Z,8.47
2023-02-13T09:59:39.626Z,8.23
2023-02-13T10:02:43.722Z,8.67
2023-02-13T10:05:21.900Z,8.07
2023-02-13T10:07:58.141Z,7.97
2023-02-13T10:10:34.303Z,8.27
2023-02-13T10:13:17.447Z,8.13
2023-02-13T10:15:51.889Z,7.53
2023-02-13T10:18:24.217Z,7.77
2023-02-13T10:20:54.553Z,8.30
2023-02-13T10:23:26.947Z,8.10
2023-02-13T10:25:59.739Z,7.93
2023-02-13T10:28:34.950Z,7.60
2023-02-13T10:31:05.989Z,8.00
2023-02-13T10:33:41.468Z,7.90
2023-02-13T10:36:18.204Z,7.13
2023-02-13T10:38:50.921Z,6.87
2023-02-13T10:41:26.274Z,7.60
2023-02-13T10:44:03.302Z,7.60
2023-02-13T10:46:37.520Z,7.20
2023-02-13T10:49:24.061Z,7.10
2023-02-13T10:51:57.550Z,6.80
2023-02-13T10:54:35.421Z,7.87
2023-02-13T10:57:13.670Z,6.90
2023-02-13T10:59:58.236Z,6.40
2023-02-13T11:02:27.320Z,6.17
2023-02-13T11:05:00.360Z,6.47
2023-02-13T11:07:28.773Z,6.17
2023-02-13T11:09:59.669Z,6.27
2023-02-13T11:12:29.130Z,6.13
2023-02-13T11:14:58.165Z,6.00
2023-02-13T11:17:26.678Z,6.13
2023-02-13T11:19:55.566Z,5.47
2023-02-13T11:22:32.174Z,5.73
2023-02-13T11:25:02.446Z,6.20
2023-02-13T11:27:34.008Z,6.00
2023-02-13T11:30:03.134Z,5.73
2023-02-13T11:32:31.326Z,5.43
2023-02-13T11:35:06.926Z,5.77
2023-02-13T11:37:35.165Z,5.57
2023-02-13T11:40:29.217Z,5.57
2023-02-13T11:42:56.074Z,5.97
2023-02-13T11:45:25.552Z,6.20
2023-02-13T11:47:54.128Z,6.03
2023-02-13T11:50:24.908Z,6.27
2023-02-13T11:52:56.820Z,5.90
2023-02-13T11:55:32.494Z,6.33
2023-02-13T11:58:01.209Z,6.70
2023-02-13T12:00:33.778Z,6.70
2023-02-13T12:03:00.765Z,5.80
2023-02-13T12:05:28.624Z,6.40
2023-02-13T12:08:00.376Z,7.23
2023-02-13T12:10:28.446Z,6.53
2023-02-13T12:12:57.714Z,6.53
2023-02-13T12:15:26.798Z,7.23
2023-02-13T12:18:05.749Z,6.77
2023-02-13T12:20:41.357Z,7.03
2023-02-13T12:23:19.653Z,7.03
2023-02-13T12:25:55.661Z,6.73
2023-02-13T12:28:35.292Z,7.83
2023-02-13T12:31:17.093Z,7.10
2023-02-13T12:34:15.615Z,7.47
2023-02-13T12:36:54.280Z,7.50
2023-02-13T12:39:30.652Z,7.97
2023-02-13T12:42:21.574Z,7.87
2023-02-13T12:45:10.853Z,7.43
2023-02-13T12:47:47.594Z,7.20
2023-02-13T12:50:29.959Z,7.20
2023-02-13T12:53:12.959Z,7.20
2023-02-13T12:55:58.556Z,7.77
2023-02-13T12:58:58.999Z,7.70
2023-02-13T13:01:43.713Z,7.57
2023-02-13T13:04:19.060Z,7.73
2023-02-13T13:07:01.897Z,7.83
2023-02-13T13:09:44.522Z,7.57
2023-02-13T13:12:34.882Z,7.43
2023-02-13T13:15:09.606Z,7.40
2023-02-13T13:17:47.644Z,6.67
2023-02-13T13:20:34.550Z,7.63
2023-02-13T13:23:08.273Z,7.80
2023-02-13T13:25:43.901Z,7.20
2023-02-13T13:28:16.967Z,7.10
2023-02-13T13:30:44.963Z,8.07
2023-02-13T13:33:16.799Z,8.87
2023-02-13T13:35:50.297Z,8.50
2023-02-13T13:38:25.412Z,8.13
2023-02-13T13:40:57.959Z,7.40
2023-02-13T13:43:35.069Z,8.00
2023-02-13T13:46:08.779Z,8.57
2023-02-13T13:48:55.457Z,8.37
2023-02-13T13:51:22.839Z,9.10
2023-02-13T13:54:23.368Z,9.00
2023-02-13T13:57:09.085Z,9.10
2023-02-13T13:59:57.510Z,9.03
2023-02-13T14:02:43.566Z,10.00
2023-02-13T14:05:23.295Z,9.63
2023-02-13T14:07:52.237Z,9.90
2023-02-13T14:11:07.507Z,9.67
2023-02-13T14:13:36.955Z,9.97
2023-02-13T14:16:06.828Z,9.63
2023-02-13T14:18:35.349Z,10.90
2023-02-13T14:21:03.772Z,10.57
2023-02-13T14:23:36.084Z,10.07
2023-02-13T14:26:30.119Z,9.27
2023-02-13T14:29:30.579Z,9.60
2023-02-13T14:32:19.012Z,9.13
2023-02-13T14:34:57.117Z,8.47
2023-02-13T14:37:32.248Z,8.37
2023-02-13T14:40:43.494Z,8.80
2023-02-13T14:43:40.204Z,9.50
2023-02-13T14:46:21.429Z,9.30
2023-02-13T14:48:55.918Z,9.30
2023-02-13T14:51:28.844Z,9.67
2023-02-13T14:54:01.474Z,9.73
2023-02-13T14:56:30.496Z,9.60
2023-02-13T14:59:06.899Z,8.13
2023-02-13T15:01:36.022Z,9.50
2023-02-13T15:04:11.146Z,8.70
2023-02-13T15:06:41.380Z,8.40
2023-02-13T15:09:26.710Z,9.17
2023-02-13T15:11:53.535Z,9.03
2023-02-13T15:14:30.572Z,9.00
2023-02-13T15:17:02.837Z,9.33
2023-02-13T15:19:31.334Z,9.00
2023-02-13T15:22:00.561Z,8.63
2023-02-13T15:24:30.316Z,8.80
2023-02-13T15:27:02.252Z,8.10
2023-02-13T15:29:40.985Z,8.00
2023-02-13T15:32:19.312Z,8.10
2023-02-13T15:34:48.461Z,8.87
2023-02-13T15:37:21.687Z,8.23
2023-02-13T15:39:48.486Z,7.80
2023-02-13T15:42:15.444Z,8.27
2023-02-13T15:44:46.100Z,8.60
2023-02-13T15:47:18.040Z,8.80
2023-02-13T15:49:50.311Z,8.40
2023-02-13T15:52:21.635Z,7.57
2023-02-13T15:54:50.471Z,7.30
2023-02-13T15:57:18.167Z,8.17
2023-02-13T15:59:46.349Z,7.70
2023-02-13T16:02:19.292Z,7.67
2023-02-13T16:04:49.214Z,7.67
2023-02-13T16:07:16.264Z,7.73
2023-02-13T16:09:43.463Z,7.53
2023-02-13T16:12:20.490Z,8.70
2023-02-13T16:14:53.654Z,7.47
2023-02-13T16:17:28.131Z,8.30
2023-02-13T16:19:59.860Z,8.60
2023-02-13T16:22:31.946Z,7.80
2023-02-13T16:25:06.109Z,8.47
2023-02-13T16:27:34.512Z,8.03
2023-02-13T16:30:04.898Z,8.10
2023-02-13T16:32:35.007Z,9.20
2023-02-13T16:35:28.414Z,8.17
2023-02-13T16:37:57.666Z,8.67
2023-02-13T16:40:41.241Z,9.63
2023-02-13T16:43:34.019Z,11.53
2023-02-13T16:46:24.194Z,11.20
2023-02-13T16:49:20.033Z,9.20
2023-02-13T16:51:51.610Z,8.47
2023-02-13T16:54:31.944Z,8.30
2023-02-13T16:57:01.867Z,8.70
2023-02-13T16:59:55.293Z,12.20
2023-02-13T17:02:24.848Z,10.60
2023-02-13T17:04:54.046Z,9.00
2023-02-13T17:07:24.685Z,8.40
2023-02-13T17:09:56.788Z,9.70
2023-02-13T17:12:24.383Z,9.40
2023-02-13T17:14:52.095Z,9.47
2023-02-13T17:17:20.645Z,9.33
2023-02-13T17:19:48.578Z,8.90
2023-02-13T17:22:33.312Z,10.30
2023-02-13T17:25:02.216Z,10.00
2023-02-13T17:27:29.253Z,10.07
2023-02-13T17:29:56.159Z,10.17
2023-02-13T17:32:25.539Z,9.87
2023-02-13T17:34:52.619Z,11.20
2023-02-13T17:37:21.829Z,10.50
2023-02-13T17:39:50.446Z,9.63
2023-02-13T17:42:20.920Z,10.80
2023-02-13T17:44:47.844Z,9.33
2023-02-13T17:47:14.762Z,10.47
2023-02-13T17:49:42.064Z,10.00
2023-02-13T17:52:14.996Z,9.90
2023-02-13T17:54:42.085Z,10.10
2023-02-13T17:57:10.750Z,10.50
2023-02-13T17:59:37.744Z,11.33
2023-02-13T18:02:06.219Z,10.57
2023-02-13T18:04:33.197Z,11.20
2023-02-13T18:07:00.048Z,10.60
2023-02-13T18:09:27.042Z,10.73
2023-02-13T18:12:04.819Z,10.57
2023-02-13T18:14:34.545Z,10.87
2023-02-13T18:17:01.425Z,11.30
2023-02-13T18:19:28.314Z,10.50
2023-02-13T18:21:55.239Z,10.27
2023-02-13T18:24:22.145Z,11.40
2023-02-13T18:26:49.348Z,10.87
2023-02-13T18:29:16.266Z,10.70
2023-02-13T18:31:44.575Z,10.30
2023-02-13T18:34:11.493Z,10.63
2023-02-13T18:36:38.444Z,10.13
2023-02-13T18:39:05.518Z,10.27
2023-02-13T18:41:32.389Z,11.97
2023-02-13T18:43:59.351Z,13.20
2023-02-13T18:46:26.287Z,10.70
2023-02-13T18:48:54.541Z,10.60
2023-02-13T18:51:21.628Z,10.60
2023-02-13T18:53:48.596Z,11.37
2023-02-13T18:56:15.489Z,14.23
2023-02-13T18:58:42.362Z,12.13
2023-02-13T19:01:11.029Z,13.00
2023-02-13T19:03:39.538Z,12.17
2023-02-13T19:06:10.160Z,11.77
2023-02-13T19:08:37.336Z,10.83
2023-02-13T19:11:05.726Z,11.17
2023-02-13T19:13:33.171Z,12.03
2023-02-13T19:16:04.492Z,11.93
2023-02-13T19:18:31.775Z,10.77
2023-02-13T19:21:02.378Z,12.20
2023-02-13T19:23:30.817Z,11.57
2023-02-13T19:25:57.835Z,10.87
2023-02-13T19:28:24.935Z,11.37
2023-02-13T19:30:51.875Z,11.43
2023-02-13T19:33:19.154Z,11.37
2023-02-13T19:35:57.687Z,11.10
2023-02-13T19:38:24.592Z,10.80
2023-02-13T19:40:54.190Z,10.80
2023-02-13T19:43:21.444Z,10.17
2023-02-13T19:45:48.496Z,10.43
2023-02-13T19:48:15.680Z,11.57
2023-02-13T19:50:42.582Z,11.33
2023-02-13T19:53:09.464Z,10.80
2023-02-13T19:55:36.323Z,11.30
2023-02-13T19:58:04.965Z,11.47
2023-02-13T20:00:31.909Z,11.20
2023-02-13T20:03:03.750Z,11.70
2023-02-13T20:05:31.612Z,11.67
2023-02-13T20:07:58.603Z,12.03
2023-02-13T20:10:25.422Z,11.70
2023-02-13T20:12:54.985Z,11.40
2023-02-13T20:15:24.622Z,11.43
2023-02-13T20:17:51.814Z,12.30
2023-02-13T20:20:18.961Z,12.23
2023-02-13T20:22:47.209Z,11.60
2023-02-13T20:25:15.246Z,12.67
2023-02-13T20:27:42.923Z,12.03
2023-02-13T20:30:13.624Z,11.83
2023-02-13T20:32:41.914Z,11.70
2023-02-13T20:35:09.093Z,11.37
2023-02-13T20:37:36.111Z,12.10
2023-02-13T20:40:02.998Z,12.43
2023-02-13T20:42:32.800Z,11.80
2023-02-13T20:45:00.200Z,11.60
2023-02-13T20:47:27.212Z,11.47
2023-02-13T20:49:55.415Z,11.63
2023-02-13T20:52:22.533Z,12.43
2023-02-13T20:54:49.422Z,12.27
2023-02-13T20:57:16.425Z,10.43
2023-02-13T20:59:44.916Z,11.83
2023-02-13T21:02:12.423Z,11.70
2023-02-13T21:04:39.436Z,12.73
2023-02-13T21:07:09.235Z,10.80
2023-02-13T21:09:36.927Z,11.73
2023-02-13T21:12:04.092Z,16.80
2023-02-13T21:14:30.933Z,13.67
2023-02-13T21:16:57.782Z,12.47
2023-02-13T21:19:24.878Z,11.90
2023-02-13T21:21:51.852Z,11.30
2023-02-13T21:24:21.770Z,11.67
2023-02-13T21:26:52.294Z,12.13
2023-02-13T21:29:19.663Z,11.50
2023-02-13T21:31:47.767Z,11.27
2023-02-13T21:34:15.773Z,11.83
2023-02-13T21:36:42.713Z,11.63
2023-02-13T21:39:11.280Z,12.27
2023-02-13T21:41:41.414Z,11.60
2023-02-13T21:44:09.729Z,11.90
2023-02-13T21:46:36.982Z,11.80
2023-02-13T21:49:05.739Z,11.07
2023-02-13T21:51:34.762Z,12.53
2023-02-13T21:54:01.965Z,11.93
2023-02-13T21:56:30.582Z,12.10
2023-02-13T21:58:59.042Z,12.30
2023-02-13T22:01:28.133Z,11.63
2023-02-13T22:03:56.858Z,11.50
2023-02-13T22:06:25.501Z,11.67
2023-02-13T22:08:56.311Z,11.37
2023-02-13T22:11:23.325Z,12.13
2023-02-13T22:13:55.066Z,12.70
2023-02-13T22:16:23.779Z,12.43
2023-02-13T22:18:50.736Z,12.47
2023-02-13T22:21:19.423Z,11.83
2023-02-13T22:23:47.343Z,12.93
2023-02-13T22:26:16.705Z,12.93
2023-02-13T22:28:43.643Z,13.87
2023-02-13T22:31:11.536Z,11.87
2023-02-13T22:33:39.832Z,13.87
2023-02-13T22:36:07.513Z,12.47
2023-02-13T22:38:35.916Z,13.77
2023-02-13T22:41:07.411Z,13.80
2023-02-13T22:43:34.572Z,12.57
2023-02-13T22:46:05.731Z,12.63
2023-02-13T22:48:32.881Z,12.53
2023-02-13T22:51:04.459Z,13.47
2023-02-13T22:53:33.205Z,13.40
2023-02-13T22:56:01.908Z,14.00
2023-02-13T22:58:28.896Z,12.23
2023-02-13T23:00:55.849Z,12.73
2023-02-13T23:03:23.038Z,13.43
2023-02-13T23:05:49.975Z,12.70
2023-02-13T23:08:18.574Z,13.80
2023-02-13T23:11:08.312Z,13.47
2023-02-13T23:13:35.406Z,13.40
2023-02-13T23:16:02.293Z,12.63
2023-02-13T23:18:29.224Z,13.03
2023-02-13T23:20:56.236Z,13.37
2023-02-13T23:23:24.445Z,12.93
2023-02-13T23:25:51.304Z,12.80
2023-02-13T23:28:18.123Z,12.77
2023-02-13T23:30:45.127Z,13.30
2023-02-13T23:33:12.056Z,13.43
2023-02-13T23:35:39.000Z,12.80
2023-02-13T23:38:05.844Z,12.20
2023-02-13T23:40:34.025Z,12.13
2023-02-13T23:43:00.828Z,12.30
2023-02-13T23:45:27.909Z,12.97
2023-02-13T23:47:54.732Z,12.43
2023-02-13T23:50:21.631Z,12.97
2023-02-13T23:52:48.517Z,12.27
2023-02-13T23:55:15.558Z,12.23
2023-02-13T23:57:43.907Z,12.67
